sensor_id;sensor_type;location;lat;lon;timestamp;P1;durP1;ratioP1;P2;durP2;ratioP2
54953;SDS011;40855;51.072;5.402;2022-10-26T00:02:15;13.77;;;3.47;;
54953;SDS011;40855;51.072;5.402;2022-10-26T00:04:41;6.32;;;3.38;;
54953;SDS011;40855;51.072;5.402;2022-10-26T00:07:07;8.88;;;3.58;;
54953;SDS011;40855;51.072;5.402;2022-10-26T00:09:32;7.45;;;3.80;;
54953;SDS011;40855;51.072;5.402;2022-10-26T00:11:58;6.90;;;4.00;;
54953;SDS011;40855;51.072;5.402;2022-10-26T00:14:24;12.32;;;4.30;;
54953;SDS011;40855;51.072;5.402;2022-10-26T00:16:51;10.75;;;3.38;;
54953;SDS011;40855;51.072;5.402;2022-10-26T00:19:16;10.25;;;4.13;;
54953;SDS011;40855;51.072;5.402;2022-10-26T00:21:42;5.57;;;3.55;;
54953;SDS011;40855;51.072;5.402;2022-10-26T00:24:09;12.10;;;4.10;;
54953;SDS011;40855;51.072;5.402;2022-10-26T00:26:35;12.80;;;3.85;;
54953;SDS011;40855;51.072;5.402;2022-10-26T00:29:01;9.43;;;3.72;;
54953;SDS011;40855;51.072;5.402;2022-10-26T00:31:27;8.65;;;3.40;;
54953;SDS011;40855;51.072;5.402;2022-10-26T00:33:53;15.13;;;4.00;;
54953;SDS011;40855;51.072;5.402;2022-10-26T00:36:19;10.13;;;3.80;;
54953;SDS011;40855;51.072;5.402;2022-10-26T00:38:49;9.07;;;3.88;;
54953;SDS011;40855;51.072;5.402;2022-10-26T00:41:19;9.25;;;3.75;;
54953;SDS011;40855;51.072;5.402;2022-10-26T00:43:48;10.85;;;4.18;;
54953;SDS011;40855;51.072;5.402;2022-10-26T00:46:15;10.35;;;4.25;;
54953;SDS011;40855;51.072;5.402;2022-10-26T00:48:46;10.10;;;3.88;;
54953;SDS011;40855;51.072;5.402;2022-10-26T00:53:51;9.30;;;3.30;;
54953;SDS011;40855;51.072;5.402;2022-10-26T00:56:17;9.50;;;3.78;;
54953;SDS011;40855;51.072;5.402;2022-10-26T00:58:43;9.98;;;4.25;;
54953;SDS011;40855;51.072;5.402;2022-10-26T01:01:09;12.88;;;4.22;;
54953;SDS011;40855;51.072;5.402;2022-10-26T01:03:35;11.02;;;4.30;;
54953;SDS011;40855;51.072;5.402;2022-10-26T01:06:02;13.73;;;3.75;;
54953;SDS011;40855;51.072;5.402;2022-10-26T01:08:29;9.20;;;3.80;;
54953;SDS011;40855;51.072;5.402;2022-10-26T01:10:56;9.00;;;3.90;;
54953;SDS011;40855;51.072;5.402;2022-10-26T01:13:24;7.30;;;4.05;;
54953;SDS011;40855;51.072;5.402;2022-10-26T01:35:16;7.20;;;4.18;;
54953;SDS011;40855;51.072;5.402;2022-10-26T01:37:48;12.88;;;5.00;;
54953;SDS011;40855;51.072;5.402;2022-10-26T01:40:33;15.05;;;4.80;;
54953;SDS011;40855;51.072;5.402;2022-10-26T01:43:05;18.48;;;4.95;;
54953;SDS011;40855;51.072;5.402;2022-10-26T01:45:33;9.75;;;4.38;;
54953;SDS011;40855;51.072;5.402;2022-10-26T01:48:02;11.48;;;4.57;;
54953;SDS011;40855;51.072;5.402;2022-10-26T01:50:29;10.98;;;4.35;;
54953;SDS011;40855;51.072;5.402;2022-10-26T01:52:56;11.68;;;4.55;;
54953;SDS011;40855;51.072;5.402;2022-10-26T02:01:11;15.88;;;4.47;;
54953;SDS011;40855;51.072;5.402;2022-10-26T02:12:32;11.75;;;4.50;;
54953;SDS011;40855;51.072;5.402;2022-10-26T02:15:08;19.95;;;4.60;;
54953;SDS011;40855;51.072;5.402;2022-10-26T02:18:06;9.00;;;4.63;;
54953;SDS011;40855;51.072;5.402;2022-10-26T02:20:47;9.52;;;4.00;;
54953;SDS011;40855;51.072;5.402;2022-10-26T02:23:16;11.95;;;4.43;;
54953;SDS011;40855;51.072;5.402;2022-10-26T02:25:47;10.15;;;4.72;;
54953;SDS011;40855;51.072;5.402;2022-10-26T02:28:16;11.57;;;4.40;;
54953;SDS011;40855;51.072;5.402;2022-10-26T02:30:46;6.85;;;4.05;;
54953;SDS011;40855;51.072;5.402;2022-10-26T02:33:14;15.65;;;4.43;;
54953;SDS011;40855;51.072;5.402;2022-10-26T02:35:42;13.20;;;4.85;;
54953;SDS011;40855;51.072;5.402;2022-10-26T02:38:12;8.90;;;3.88;;
54953;SDS011;40855;51.072;5.402;2022-10-26T02:40:39;11.35;;;4.10;;
54953;SDS011;40855;51.072;5.402;2022-10-26T02:43:07;8.70;;;4.80;;
54953;SDS011;40855;51.072;5.402;2022-10-26T02:45:39;10.20;;;4.28;;
54953;SDS011;40855;51.072;5.402;2022-10-26T02:48:13;9.80;;;4.60;;
54953;SDS011;40855;51.072;5.402;2022-10-26T02:53:53;9.73;;;4.03;;
54953;SDS011;40855;51.072;5.402;2022-10-26T02:56:32;12.68;;;4.40;;
54953;SDS011;40855;51.072;5.402;2022-10-26T02:59:04;9.77;;;4.05;;
54953;SDS011;40855;51.072;5.402;2022-10-26T03:01:33;11.35;;;3.90;;
54953;SDS011;40855;51.072;5.402;2022-10-26T03:03:59;10.65;;;4.07;;
54953;SDS011;40855;51.072;5.402;2022-10-26T03:06:25;11.23;;;4.20;;
54953;SDS011;40855;51.072;5.402;2022-10-26T03:08:51;9.10;;;3.75;;
54953;SDS011;40855;51.072;5.402;2022-10-26T03:11:17;7.70;;;3.55;;
54953;SDS011;40855;51.072;5.402;2022-10-26T03:13:43;13.70;;;4.43;;
54953;SDS011;40855;51.072;5.402;2022-10-26T03:16:09;9.25;;;3.33;;
54953;SDS011;40855;51.072;5.402;2022-10-26T03:18:35;8.82;;;3.70;;
54953;SDS011;40855;51.072;5.402;2022-10-26T03:21:01;6.57;;;3.65;;
54953;SDS011;40855;51.072;5.402;2022-10-26T03:23:26;19.90;;;3.83;;
54953;SDS011;40855;51.072;5.402;2022-10-26T03:25:56;10.02;;;3.10;;
54953;SDS011;40855;51.072;5.402;2022-10-26T03:28:22;8.90;;;3.15;;
54953;SDS011;40855;51.072;5.402;2022-10-26T03:30:48;9.40;;;3.63;;
54953;SDS011;40855;51.072;5.402;2022-10-26T03:33:14;11.40;;;3.95;;
54953;SDS011;40855;51.072;5.402;2022-10-26T03:35:39;13.18;;;3.42;;
54953;SDS011;40855;51.072;5.402;2022-10-26T03:38:05;6.25;;;3.40;;
54953;SDS011;40855;51.072;5.402;2022-10-26T03:40:31;13.85;;;3.53;;
54953;SDS011;40855;51.072;5.402;2022-10-26T03:42:56;7.90;;;3.85;;
54953;SDS011;40855;51.072;5.402;2022-10-26T03:45:22;13.68;;;3.67;;
54953;SDS011;40855;51.072;5.402;2022-10-26T03:47:48;9.77;;;3.70;;
54953;SDS011;40855;51.072;5.402;2022-10-26T03:50:16;6.95;;;3.00;;
54953;SDS011;40855;51.072;5.402;2022-10-26T03:52:43;8.80;;;3.17;;
54953;SDS011;40855;51.072;5.402;2022-10-26T03:55:10;12.98;;;3.53;;
54953;SDS011;40855;51.072;5.402;2022-10-26T03:57:42;11.80;;;3.53;;
54953;SDS011;40855;51.072;5.402;2022-10-26T04:00:12;8.43;;;3.08;;
54953;SDS011;40855;51.072;5.402;2022-10-26T04:02:40;8.35;;;3.60;;
54953;SDS011;40855;51.072;5.402;2022-10-26T04:05:07;13.85;;;3.90;;
54953;SDS011;40855;51.072;5.402;2022-10-26T04:07:33;11.15;;;3.25;;
54953;SDS011;40855;51.072;5.402;2022-10-26T04:09:58;11.65;;;3.75;;
54953;SDS011;40855;51.072;5.402;2022-10-26T04:12:24;4.32;;;2.85;;
54953;SDS011;40855;51.072;5.402;2022-10-26T04:14:50;5.88;;;3.17;;
54953;SDS011;40855;51.072;5.402;2022-10-26T04:17:15;12.05;;;3.42;;
54953;SDS011;40855;51.072;5.402;2022-10-26T04:19:41;12.32;;;2.80;;
54953;SDS011;40855;51.072;5.402;2022-10-26T04:22:07;12.60;;;3.58;;
54953;SDS011;40855;51.072;5.402;2022-10-26T04:24:32;10.25;;;3.60;;
54953;SDS011;40855;51.072;5.402;2022-10-26T04:26:58;10.57;;;3.22;;
54953;SDS011;40855;51.072;5.402;2022-10-26T04:29:23;10.98;;;3.30;;
54953;SDS011;40855;51.072;5.402;2022-10-26T04:31:49;9.25;;;3.20;;
54953;SDS011;40855;51.072;5.402;2022-10-26T04:34:15;12.68;;;3.47;;
54953;SDS011;40855;51.072;5.402;2022-10-26T04:36:41;12.95;;;3.67;;
54953;SDS011;40855;51.072;5.402;2022-10-26T04:39:06;10.25;;;3.22;;
54953;SDS011;40855;51.072;5.402;2022-10-26T04:41:32;8.35;;;3.30;;
54953;SDS011;40855;51.072;5.402;2022-10-26T04:43:57;12.70;;;3.75;;
54953;SDS011;40855;51.072;5.402;2022-10-26T04:46:23;7.47;;;3.15;;
54953;SDS011;40855;51.072;5.402;2022-10-26T04:48:49;6.93;;;3.35;;
54953;SDS011;40855;51.072;5.402;2022-10-26T04:51:14;11.32;;;3.22;;
54953;SDS011;40855;51.072;5.402;2022-10-26T04:53:40;15.32;;;3.10;;
54953;SDS011;40855;51.072;5.402;2022-10-26T04:56:07;8.23;;;3.30;;
54953;SDS011;40855;51.072;5.402;2022-10-26T04:58:33;7.85;;;3.13;;
54953;SDS011;40855;51.072;5.402;2022-10-26T05:00:59;4.03;;;3.38;;
54953;SDS011;40855;51.072;5.402;2022-10-26T05:03:26;6.35;;;3.38;;
54953;SDS011;40855;51.072;5.402;2022-10-26T05:05:52;12.18;;;3.05;;
54953;SDS011;40855;51.072;5.402;2022-10-26T05:08:17;7.45;;;3.28;;
54953;SDS011;40855;51.072;5.402;2022-10-26T05:10:47;10.43;;;3.10;;
54953;SDS011;40855;51.072;5.402;2022-10-26T05:13:13;7.30;;;2.75;;
54953;SDS011;40855;51.072;5.402;2022-10-26T05:15:39;13.95;;;3.42;;
54953;SDS011;40855;51.072;5.402;2022-10-26T05:18:05;5.95;;;3.28;;
54953;SDS011;40855;51.072;5.402;2022-10-26T05:20:33;12.23;;;3.30;;
54953;SDS011;40855;51.072;5.402;2022-10-26T05:23:00;14.10;;;3.38;;
54953;SDS011;40855;51.072;5.402;2022-10-26T05:25:31;5.05;;;3.35;;
54953;SDS011;40855;51.072;5.402;2022-10-26T05:28:00;7.97;;;3.17;;
54953;SDS011;40855;51.072;5.402;2022-10-26T05:30:28;8.55;;;2.95;;
54953;SDS011;40855;51.072;5.402;2022-10-26T05:32:59;8.23;;;3.22;;
54953;SDS011;40855;51.072;5.402;2022-10-26T05:35:29;7.17;;;3.07;;
54953;SDS011;40855;51.072;5.402;2022-10-26T05:37:55;11.38;;;2.90;;
54953;SDS011;40855;51.072;5.402;2022-10-26T05:40:21;12.77;;;3.13;;
54953;SDS011;40855;51.072;5.402;2022-10-26T05:42:48;10.45;;;2.60;;
54953;SDS011;40855;51.072;5.402;2022-10-26T05:45:15;8.88;;;2.67;;
54953;SDS011;40855;51.072;5.402;2022-10-26T05:47:44;5.72;;;2.75;;
54953;SDS011;40855;51.072;5.402;2022-10-26T05:50:10;4.80;;;2.50;;
54953;SDS011;40855;51.072;5.402;2022-10-26T05:52:38;3.70;;;2.13;;
54953;SDS011;40855;51.072;5.402;2022-10-26T05:55:08;5.95;;;1.90;;
54953;SDS011;40855;51.072;5.402;2022-10-26T05:57:35;4.18;;;1.23;;
54953;SDS011;40855;51.072;5.402;2022-10-26T06:00:05;2.95;;;1.08;;
54953;SDS011;40855;51.072;5.402;2022-10-26T06:02:38;4.15;;;1.30;;
54953;SDS011;40855;51.072;5.402;2022-10-26T06:05:20;4.40;;;1.35;;
54953;SDS011;40855;51.072;5.402;2022-10-26T06:07:50;4.20;;;1.20;;
54953;SDS011;40855;51.072;5.402;2022-10-26T06:10:16;4.88;;;1.30;;
54953;SDS011;40855;51.072;5.402;2022-10-26T06:12:43;2.28;;;1.15;;
54953;SDS011;40855;51.072;5.402;2022-10-26T06:15:13;6.53;;;1.30;;
54953;SDS011;40855;51.072;5.402;2022-10-26T06:17:45;5.35;;;1.10;;
54953;SDS011;40855;51.072;5.402;2022-10-26T06:31:44;4.82;;;1.23;;
54953;SDS011;40855;51.072;5.402;2022-10-26T06:34:10;4.07;;;1.35;;
54953;SDS011;40855;51.072;5.402;2022-10-26T06:36:38;5.88;;;1.45;;
54953;SDS011;40855;51.072;5.402;2022-10-26T06:39:06;2.70;;;1.33;;
54953;SDS011;40855;51.072;5.402;2022-10-26T06:41:35;4.45;;;1.23;;
54953;SDS011;40855;51.072;5.402;2022-10-26T06:44:02;9.32;;;1.77;;
54953;SDS011;40855;51.072;5.402;2022-10-26T06:46:36;9.70;;;1.60;;
54953;SDS011;40855;51.072;5.402;2022-10-26T06:51:40;3.17;;;1.35;;
54953;SDS011;40855;51.072;5.402;2022-10-26T06:54:57;7.40;;;1.70;;
54953;SDS011;40855;51.072;5.402;2022-10-26T06:57:10;7.53;;;1.85;;
54953;SDS011;40855;51.072;5.402;2022-10-26T06:59:39;3.95;;;1.60;;
54953;SDS011;40855;51.072;5.402;2022-10-26T07:02:12;4.57;;;1.58;;
54953;SDS011;40855;51.072;5.402;2022-10-26T07:04:39;4.22;;;1.55;;
54953;SDS011;40855;51.072;5.402;2022-10-26T07:07:05;5.85;;;1.48;;
54953;SDS011;40855;51.072;5.402;2022-10-26T07:09:32;9.82;;;1.73;;
54953;SDS011;40855;51.072;5.402;2022-10-26T07:11:58;5.97;;;1.42;;
54953;SDS011;40855;51.072;5.402;2022-10-26T07:14:24;5.20;;;1.45;;
54953;SDS011;40855;51.072;5.402;2022-10-26T07:16:49;3.67;;;1.50;;
54953;SDS011;40855;51.072;5.402;2022-10-26T07:19:15;3.28;;;1.65;;
54953;SDS011;40855;51.072;5.402;2022-10-26T07:21:40;5.10;;;1.50;;
54953;SDS011;40855;51.072;5.402;2022-10-26T07:24:06;9.10;;;1.90;;
54953;SDS011;40855;51.072;5.402;2022-10-26T07:26:32;13.40;;;2.40;;
54953;SDS011;40855;51.072;5.402;2022-10-26T07:28:57;5.38;;;1.85;;
54953;SDS011;40855;51.072;5.402;2022-10-26T07:31:23;11.75;;;1.90;;
54953;SDS011;40855;51.072;5.402;2022-10-26T07:33:51;3.88;;;1.50;;
54953;SDS011;40855;51.072;5.402;2022-10-26T07:36:18;8.98;;;1.85;;
54953;SDS011;40855;51.072;5.402;2022-10-26T07:38:43;3.90;;;1.85;;
54953;SDS011;40855;51.072;5.402;2022-10-26T07:41:09;5.90;;;1.70;;
54953;SDS011;40855;51.072;5.402;2022-10-26T07:43:35;4.97;;;1.88;;
54953;SDS011;40855;51.072;5.402;2022-10-26T07:46:00;9.65;;;2.08;;
54953;SDS011;40855;51.072;5.402;2022-10-26T07:48:26;4.30;;;1.33;;
54953;SDS011;40855;51.072;5.402;2022-10-26T07:50:52;4.53;;;1.52;;
54953;SDS011;40855;51.072;5.402;2022-10-26T07:53:17;3.47;;;1.48;;
54953;SDS011;40855;51.072;5.402;2022-10-26T07:55:50;5.05;;;1.70;;
54953;SDS011;40855;51.072;5.402;2022-10-26T07:58:17;6.18;;;1.73;;
54953;SDS011;40855;51.072;5.402;2022-10-26T08:00:47;9.15;;;1.88;;
54953;SDS011;40855;51.072;5.402;2022-10-26T08:03:14;7.13;;;1.55;;
54953;SDS011;40855;51.072;5.402;2022-10-26T08:05:40;7.50;;;1.73;;
54953;SDS011;40855;51.072;5.402;2022-10-26T08:08:06;7.25;;;1.73;;
54953;SDS011;40855;51.072;5.402;2022-10-26T08:10:31;3.45;;;1.50;;
54953;SDS011;40855;51.072;5.402;2022-10-26T08:12:57;7.63;;;1.85;;
54953;SDS011;40855;51.072;5.402;2022-10-26T08:15:23;5.20;;;1.30;;
54953;SDS011;40855;51.072;5.402;2022-10-26T08:17:48;8.50;;;1.48;;
54953;SDS011;40855;51.072;5.402;2022-10-26T08:20:14;4.88;;;1.73;;
54953;SDS011;40855;51.072;5.402;2022-10-26T08:22:40;6.70;;;1.70;;
54953;SDS011;40855;51.072;5.402;2022-10-26T08:25:05;5.60;;;1.90;;
54953;SDS011;40855;51.072;5.402;2022-10-26T08:27:31;7.10;;;1.88;;
54953;SDS011;40855;51.072;5.402;2022-10-26T08:29:57;7.30;;;1.95;;
54953;SDS011;40855;51.072;5.402;2022-10-26T08:32:22;5.35;;;2.00;;
54953;SDS011;40855;51.072;5.402;2022-10-26T08:34:48;3.72;;;1.80;;
54953;SDS011;40855;51.072;5.402;2022-10-26T08:37:14;5.70;;;2.05;;
54953;SDS011;40855;51.072;5.402;2022-10-26T08:39:39;6.25;;;1.90;;
54953;SDS011;40855;51.072;5.402;2022-10-26T08:42:27;4.53;;;1.95;;
54953;SDS011;40855;51.072;5.402;2022-10-26T08:45:04;9.25;;;1.85;;
54953;SDS011;40855;51.072;5.402;2022-10-26T08:47:49;7.97;;;1.95;;
54953;SDS011;40855;51.072;5.402;2022-10-26T08:53:02;5.32;;;1.80;;
54953;SDS011;40855;51.072;5.402;2022-10-26T08:55:53;6.35;;;1.33;;
54953;SDS011;40855;51.072;5.402;2022-10-26T08:58:21;10.00;;;1.90;;
54953;SDS011;40855;51.072;5.402;2022-10-26T09:00:51;11.80;;;1.95;;
54953;SDS011;40855;51.072;5.402;2022-10-26T09:03:17;5.30;;;2.03;;
54953;SDS011;40855;51.072;5.402;2022-10-26T09:05:56;8.68;;;2.05;;
54953;SDS011;40855;51.072;5.402;2022-10-26T09:14:02;5.85;;;1.75;;
54953;SDS011;40855;51.072;5.402;2022-10-26T09:24:57;7.72;;;1.75;;
54953;SDS011;40855;51.072;5.402;2022-10-26T09:27:29;11.10;;;2.13;;
54953;SDS011;40855;51.072;5.402;2022-10-26T09:30:10;9.27;;;1.98;;
54953;SDS011;40855;51.072;5.402;2022-10-26T09:32:42;6.13;;;1.75;;
54953;SDS011;40855;51.072;5.402;2022-10-26T09:37:50;3.78;;;1.30;;
54953;SDS011;40855;51.072;5.402;2022-10-26T09:40:32;6.30;;;1.63;;
54953;SDS011;40855;51.072;5.402;2022-10-26T09:43:15;4.43;;;1.83;;
54953;SDS011;40855;51.072;5.402;2022-10-26T09:45:45;7.50;;;1.58;;
54953;SDS011;40855;51.072;5.402;2022-10-26T09:50:43;5.45;;;1.85;;
54953;SDS011;40855;51.072;5.402;2022-10-26T09:53:12;5.32;;;1.60;;
54953;SDS011;40855;51.072;5.402;2022-10-26T09:55:39;4.93;;;1.50;;
54953;SDS011;40855;51.072;5.402;2022-10-26T09:58:12;6.93;;;1.48;;
54953;SDS011;40855;51.072;5.402;2022-10-26T10:00:45;3.15;;;1.52;;
54953;SDS011;40855;51.072;5.402;2022-10-26T10:03:18;11.98;;;1.70;;
54953;SDS011;40855;51.072;5.402;2022-10-26T10:06:14;5.03;;;1.50;;
54953;SDS011;40855;51.072;5.402;2022-10-26T10:11:40;3.53;;;1.70;;
54953;SDS011;40855;51.072;5.402;2022-10-26T10:14:22;7.38;;;1.67;;
54953;SDS011;40855;51.072;5.402;2022-10-26T10:16:57;7.05;;;1.77;;
54953;SDS011;40855;51.072;5.402;2022-10-26T10:19:35;9.07;;;1.33;;
54953;SDS011;40855;51.072;5.402;2022-10-26T10:22:10;4.22;;;1.42;;
54953;SDS011;40855;51.072;5.402;2022-10-26T10:24:56;7.00;;;1.90;;
54953;SDS011;40855;51.072;5.402;2022-10-26T10:27:26;5.07;;;1.27;;
54953;SDS011;40855;51.072;5.402;2022-10-26T10:29:53;4.40;;;1.58;;
54953;SDS011;40855;51.072;5.402;2022-10-26T10:32:21;7.20;;;1.30;;
54953;SDS011;40855;51.072;5.402;2022-10-26T10:34:58;6.15;;;1.75;;
54953;SDS011;40855;51.072;5.402;2022-10-26T10:37:28;11.93;;;1.67;;
54953;SDS011;40855;51.072;5.402;2022-10-26T10:42:37;7.88;;;1.58;;
54953;SDS011;40855;51.072;5.402;2022-10-26T10:45:06;6.28;;;1.35;;
54953;SDS011;40855;51.072;5.402;2022-10-26T10:48:01;1.92;;;1.10;;
54953;SDS011;40855;51.072;5.402;2022-10-26T10:50:29;7.78;;;1.23;;
54953;SDS011;40855;51.072;5.402;2022-10-26T10:55:38;4.13;;;1.42;;
54953;SDS011;40855;51.072;5.402;2022-10-26T10:58:24;5.20;;;1.15;;
54953;SDS011;40855;51.072;5.402;2022-10-26T11:00:57;6.55;;;1.10;;
54953;SDS011;40855;51.072;5.402;2022-10-26T11:06:03;4.15;;;1.20;;
54953;SDS011;40855;51.072;5.402;2022-10-26T11:09:12;4.10;;;1.10;;
54953;SDS011;40855;51.072;5.402;2022-10-26T11:11:56;4.38;;;1.20;;
54953;SDS011;40855;51.072;5.402;2022-10-26T11:14:34;7.70;;;1.52;;
54953;SDS011;40855;51.072;5.402;2022-10-26T11:17:18;4.57;;;1.25;;
54953;SDS011;40855;51.072;5.402;2022-10-26T11:19:56;3.20;;;1.60;;
54953;SDS011;40855;51.072;5.402;2022-10-26T11:22:29;4.38;;;1.20;;
54953;SDS011;40855;51.072;5.402;2022-10-26T11:25:04;4.90;;;1.17;;
54953;SDS011;40855;51.072;5.402;2022-10-26T11:28:00;5.43;;;1.10;;
54953;SDS011;40855;51.072;5.402;2022-10-26T11:30:37;7.88;;;1.85;;
54953;SDS011;40855;51.072;5.402;2022-10-26T11:33:11;2.95;;;0.98;;
54953;SDS011;40855;51.072;5.402;2022-10-26T11:36:07;3.38;;;1.10;;
54953;SDS011;40855;51.072;5.402;2022-10-26T11:41:27;7.72;;;1.58;;
54953;SDS011;40855;51.072;5.402;2022-10-26T11:46:38;3.63;;;1.05;;
54953;SDS011;40855;51.072;5.402;2022-10-26T11:49:11;6.85;;;1.10;;
54953;SDS011;40855;51.072;5.402;2022-10-26T11:51:49;5.05;;;1.10;;
54953;SDS011;40855;51.072;5.402;2022-10-26T11:56:50;3.25;;;1.10;;
54953;SDS011;40855;51.072;5.402;2022-10-26T11:59:19;4.47;;;1.20;;
54953;SDS011;40855;51.072;5.402;2022-10-26T12:02:28;10.38;;;1.20;;
54953;SDS011;40855;51.072;5.402;2022-10-26T12:07:40;6.75;;;0.93;;
54953;SDS011;40855;51.072;5.402;2022-10-26T12:10:28;3.97;;;1.25;;
54953;SDS011;40855;51.072;5.402;2022-10-26T12:15:43;5.68;;;1.02;;
54953;SDS011;40855;51.072;5.402;2022-10-26T12:18:33;4.93;;;0.85;;
54953;SDS011;40855;51.072;5.402;2022-10-26T12:21:06;2.38;;;0.60;;
54953;SDS011;40855;51.072;5.402;2022-10-26T12:23:35;3.90;;;0.70;;
54953;SDS011;40855;51.072;5.402;2022-10-26T12:26:49;1.25;;;0.60;;
54953;SDS011;40855;51.072;5.402;2022-10-26T12:47:05;3.22;;;0.80;;
54953;SDS011;40855;51.072;5.402;2022-10-26T12:52:27;1.70;;;0.95;;
54953;SDS011;40855;51.072;5.402;2022-10-26T13:00:12;10.52;;;0.85;;
54953;SDS011;40855;51.072;5.402;2022-10-26T13:08:00;4.65;;;0.70;;
54953;SDS011;40855;51.072;5.402;2022-10-26T13:10:28;1.90;;;0.60;;
54953;SDS011;40855;51.072;5.402;2022-10-26T13:15:23;2.92;;;0.50;;
54953;SDS011;40855;51.072;5.402;2022-10-26T13:18:16;4.32;;;1.13;;
54953;SDS011;40855;51.072;5.402;2022-10-26T13:23:38;2.83;;;0.90;;
54953;SDS011;40855;51.072;5.402;2022-10-26T13:34:17;4.00;;;0.90;;
54953;SDS011;40855;51.072;5.402;2022-10-26T13:37:02;2.60;;;1.00;;
54953;SDS011;40855;51.072;5.402;2022-10-26T13:39:30;3.15;;;0.65;;
54953;SDS011;40855;51.072;5.402;2022-10-26T13:42:00;1.98;;;0.80;;
54953;SDS011;40855;51.072;5.402;2022-10-26T13:44:28;3.63;;;0.98;;
54953;SDS011;40855;51.072;5.402;2022-10-26T13:47:03;4.57;;;0.82;;
54953;SDS011;40855;51.072;5.402;2022-10-26T13:49:38;10.80;;;1.33;;
54953;SDS011;40855;51.072;5.402;2022-10-26T13:52:05;6.32;;;0.88;;
54953;SDS011;40855;51.072;5.402;2022-10-26T13:54:44;5.15;;;0.90;;
54953;SDS011;40855;51.072;5.402;2022-10-26T14:00:16;9.85;;;1.08;;
54953;SDS011;40855;51.072;5.402;2022-10-26T14:02:45;6.90;;;1.00;;
54953;SDS011;40855;51.072;5.402;2022-10-26T14:05:12;5.03;;;0.75;;
54953;SDS011;40855;51.072;5.402;2022-10-26T14:07:41;5.75;;;1.05;;
54953;SDS011;40855;51.072;5.402;2022-10-26T14:12:52;4.07;;;1.30;;
54953;SDS011;40855;51.072;5.402;2022-10-26T14:15:20;3.72;;;1.23;;
54953;SDS011;40855;51.072;5.402;2022-10-26T14:17:52;6.07;;;1.23;;
54953;SDS011;40855;51.072;5.402;2022-10-26T14:20:19;3.65;;;0.82;;
54953;SDS011;40855;51.072;5.402;2022-10-26T14:22:47;2.75;;;0.75;;
54953;SDS011;40855;51.072;5.402;2022-10-26T14:25:31;5.20;;;0.80;;
54953;SDS011;40855;51.072;5.402;2022-10-26T14:27:57;3.30;;;0.77;;
54953;SDS011;40855;51.072;5.402;2022-10-26T14:32:51;3.90;;;0.85;;
54953;SDS011;40855;51.072;5.402;2022-10-26T14:35:20;6.13;;;0.85;;
54953;SDS011;40855;51.072;5.402;2022-10-26T14:37:56;7.72;;;1.02;;
54953;SDS011;40855;51.072;5.402;2022-10-26T14:40:33;6.82;;;0.98;;
54953;SDS011;40855;51.072;5.402;2022-10-26T14:43:00;4.70;;;0.82;;
54953;SDS011;40855;51.072;5.402;2022-10-26T14:45:29;7.30;;;1.00;;
54953;SDS011;40855;51.072;5.402;2022-10-26T14:48:00;3.92;;;0.95;;
54953;SDS011;40855;51.072;5.402;2022-10-26T14:50:27;1.20;;;0.65;;
54953;SDS011;40855;51.072;5.402;2022-10-26T14:53:03;4.43;;;0.80;;
54953;SDS011;40855;51.072;5.402;2022-10-26T14:55:46;5.53;;;0.70;;
54953;SDS011;40855;51.072;5.402;2022-10-26T14:58:15;2.47;;;0.70;;
54953;SDS011;40855;51.072;5.402;2022-10-26T15:00:45;5.57;;;0.85;;
54953;SDS011;40855;51.072;5.402;2022-10-26T15:03:14;6.57;;;1.00;;
54953;SDS011;40855;51.072;5.402;2022-10-26T15:05:41;7.38;;;1.17;;
54953;SDS011;40855;51.072;5.402;2022-10-26T15:11:10;3.78;;;0.65;;
54953;SDS011;40855;51.072;5.402;2022-10-26T15:13:38;3.92;;;0.95;;
54953;SDS011;40855;51.072;5.402;2022-10-26T15:18:39;1.83;;;0.77;;
54953;SDS011;40855;51.072;5.402;2022-10-26T15:23:54;7.32;;;1.10;;
54953;SDS011;40855;51.072;5.402;2022-10-26T15:26:22;9.20;;;0.88;;
54953;SDS011;40855;51.072;5.402;2022-10-26T15:28:48;3.90;;;0.98;;
54953;SDS011;40855;51.072;5.402;2022-10-26T15:33:40;5.25;;;1.20;;
54953;SDS011;40855;51.072;5.402;2022-10-26T15:36:14;6.57;;;0.90;;
54953;SDS011;40855;51.072;5.402;2022-10-26T15:38:45;8.68;;;1.10;;
54953;SDS011;40855;51.072;5.402;2022-10-26T15:41:13;9.88;;;1.30;;
54953;SDS011;40855;51.072;5.402;2022-10-26T15:43:48;4.43;;;1.00;;
54953;SDS011;40855;51.072;5.402;2022-10-26T15:46:15;9.85;;;1.17;;
54953;SDS011;40855;51.072;5.402;2022-10-26T15:48:41;4.60;;;1.30;;
54953;SDS011;40855;51.072;5.402;2022-10-26T15:51:11;7.18;;;1.88;;
54953;SDS011;40855;51.072;5.402;2022-10-26T15:53:40;5.97;;;1.60;;
54953;SDS011;40855;51.072;5.402;2022-10-26T15:56:12;9.45;;;1.60;;
54953;SDS011;40855;51.072;5.402;2022-10-26T15:58:40;12.60;;;1.85;;
54953;SDS011;40855;51.072;5.402;2022-10-26T16:01:06;9.10;;;2.42;;
54953;SDS011;40855;51.072;5.402;2022-10-26T16:03:34;6.88;;;2.00;;
54953;SDS011;40855;51.072;5.402;2022-10-26T16:06:00;3.78;;;2.15;;
54953;SDS011;40855;51.072;5.402;2022-10-26T16:08:26;8.27;;;2.35;;
54953;SDS011;40855;51.072;5.402;2022-10-26T16:10:54;6.72;;;2.13;;
54953;SDS011;40855;51.072;5.402;2022-10-26T16:13:20;8.50;;;1.88;;
54953;SDS011;40855;51.072;5.402;2022-10-26T16:15:46;6.32;;;1.70;;
54953;SDS011;40855;51.072;5.402;2022-10-26T16:18:12;5.53;;;1.45;;
54953;SDS011;40855;51.072;5.402;2022-10-26T16:20:39;8.65;;;1.30;;
54953;SDS011;40855;51.072;5.402;2022-10-26T16:23:05;4.78;;;1.30;;
54953;SDS011;40855;51.072;5.402;2022-10-26T16:25:32;13.25;;;1.50;;
54953;SDS011;40855;51.072;5.402;2022-10-26T16:28:08;3.97;;;1.25;;
54953;SDS011;40855;51.072;5.402;2022-10-26T16:30:36;7.35;;;1.23;;
54953;SDS011;40855;51.072;5.402;2022-10-26T16:33:02;17.10;;;1.63;;
54953;SDS011;40855;51.072;5.402;2022-10-26T16:35:28;16.52;;;1.55;;
54953;SDS011;40855;51.072;5.402;2022-10-26T16:37:54;6.47;;;1.20;;
54953;SDS011;40855;51.072;5.402;2022-10-26T16:40:19;6.05;;;1.65;;
54953;SDS011;40855;51.072;5.402;2022-10-26T16:42:45;11.60;;;1.52;;
54953;SDS011;40855;51.072;5.402;2022-10-26T16:45:11;8.00;;;1.30;;
54953;SDS011;40855;51.072;5.402;2022-10-26T16:47:38;7.93;;;1.50;;
54953;SDS011;40855;51.072;5.402;2022-10-26T16:50:05;4.70;;;1.75;;
54953;SDS011;40855;51.072;5.402;2022-10-26T16:52:32;7.18;;;1.30;;
54953;SDS011;40855;51.072;5.402;2022-10-26T16:54:58;18.20;;;2.30;;
54953;SDS011;40855;51.072;5.402;2022-10-26T16:57:24;5.60;;;1.40;;
54953;SDS011;40855;51.072;5.402;2022-10-26T16:59:50;7.95;;;2.00;;
54953;SDS011;40855;51.072;5.402;2022-10-26T17:02:15;11.07;;;1.88;;
54953;SDS011;40855;51.072;5.402;2022-10-26T17:04:41;8.60;;;1.58;;
54953;SDS011;40855;51.072;5.402;2022-10-26T17:07:07;3.88;;;1.73;;
54953;SDS011;40855;51.072;5.402;2022-10-26T17:09:32;6.28;;;1.67;;
54953;SDS011;40855;51.072;5.402;2022-10-26T17:11:58;8.23;;;1.67;;
54953;SDS011;40855;51.072;5.402;2022-10-26T17:14:24;7.05;;;2.00;;
54953;SDS011;40855;51.072;5.402;2022-10-26T17:16:50;6.63;;;2.10;;
54953;SDS011;40855;51.072;5.402;2022-10-26T17:19:15;13.48;;;2.20;;
54953;SDS011;40855;51.072;5.402;2022-10-26T17:21:41;6.93;;;2.00;;
54953;SDS011;40855;51.072;5.402;2022-10-26T17:24:08;5.47;;;2.63;;
54953;SDS011;40855;51.072;5.402;2022-10-26T17:26:35;7.75;;;1.92;;
54953;SDS011;40855;51.072;5.402;2022-10-26T17:29:00;7.28;;;1.95;;
54953;SDS011;40855;51.072;5.402;2022-10-26T17:31:26;15.02;;;2.42;;
54953;SDS011;40855;51.072;5.402;2022-10-26T17:33:52;7.63;;;2.58;;
54953;SDS011;40855;51.072;5.402;2022-10-26T17:36:19;12.40;;;2.83;;
54953;SDS011;40855;51.072;5.402;2022-10-26T17:38:50;9.35;;;2.75;;
54953;SDS011;40855;51.072;5.402;2022-10-26T17:41:17;10.40;;;2.83;;
54953;SDS011;40855;51.072;5.402;2022-10-26T17:43:45;8.38;;;2.63;;
54953;SDS011;40855;51.072;5.402;2022-10-26T17:46:12;6.50;;;2.58;;